Overview Statistics Trail Chart Weather Telemetry Raw packets
 

This is the latest recevied weather packets stored in our database for station/object EA5JMY-10. If no packets are shown the sender has not sent any weather packets the latest 10 day(s).

<< 28 29 30 31 32 33 34 >>
Time Temp. Humidity Pressure Rain* Wind** Luminosity Snow
1787958554 25° C 49% 1020.1 hPa - - - -
1787957654 25° C 50% 1020 hPa - - - -
1787956754 24.44° C 51% 1019.8 hPa - - - -
1787955853 25° C 51% 1019.8 hPa - - - -
1787954953 24.44° C 51% 1019.8 hPa - - - -
1787954053 25° C 49% 1019.9 hPa - - - -
1787953153 25° C 48% 1019.8 hPa - - - -
1787952253 25.56° C 46% 1019.8 hPa - - - -
1787951352 26.11° C 45% 1019.7 hPa - - - -
1787950452 25° C 46% 1019.7 hPa - - - -
1787949551 25.56° C 45% 1019.6 hPa - - - -
1787948651 24.44° C 50% 1019.5 hPa - - - -
1787947751 25° C 47% 1019.2 hPa - - - -
1787946851 25.56° C 47% 1018.9 hPa - - - -
1787945950 25.56° C 47% 1018.9 hPa - - - -
1787945050 26.11° C 47% 1018.6 hPa - - - -
1787944150 26.11° C 47% 1018.5 hPa - - - -
1787943250 26.67° C 47% 1018.1 hPa - - - -
1787942350 27.78° C 38% 1018.1 hPa - - - -
1787941449 28.33° C 35% 1017.9 hPa - - - -
1787940549 29.44° C 33% 1017.6 hPa - - - -
1787939649 29.44° C 31% 1017.4 hPa - - - -
1787938748 30.56° C 29% 1017.5 hPa - - - -
1787937848 31.11° C 29% 1017.6 hPa - - - -
1787936947 31.11° C 29% 1017.2 hPa - - - -

* Rain since midnight (hover to see other rain measurements)
** Current wind speed in m/s (hover to see current wind gust speed)